createdAt,value
2022-08-05T00:06:33.090Z,0
2022-08-05T00:12:03.887Z,0
2022-08-05T00:17:28.022Z,0
2022-08-05T00:23:12.450Z,0
2022-08-05T00:28:35.716Z,0
2022-08-05T00:35:07.951Z,1
2022-08-05T00:40:30.884Z,0
2022-08-05T00:46:14.281Z,0
2022-08-05T00:51:53.267Z,0
2022-08-05T00:57:25.326Z,0
2022-08-05T01:02:58.154Z,0
2022-08-05T01:08:47.173Z,0
2022-08-05T01:20:03.822Z,0
2022-08-05T01:25:41.843Z,2
2022-08-05T01:31:04.455Z,2
2022-08-05T01:36:28.811Z,0
2022-08-05T01:41:53.773Z,0
2022-08-05T01:52:52.612Z,0
2022-08-05T01:58:16.177Z,0
2022-08-05T02:09:08.587Z,2
2022-08-05T02:14:32.470Z,0
2022-08-05T02:19:54.808Z,2
2022-08-05T02:36:15.482Z,0
2022-08-05T02:42:02.022Z,0
2022-08-05T02:48:16.930Z,0
2022-08-05T02:53:40.712Z,0
2022-08-05T02:59:03.511Z,0
2022-08-05T03:04:27.788Z,0
2022-08-05T03:09:56.089Z,2
2022-08-05T03:15:18.906Z,0
2022-08-05T05:50:27.585Z,58.1
2022-08-05T05:56:03.420Z,48.7
2022-08-05T06:01:57.055Z,63.8
2022-08-05T06:07:57.659Z,64.5
2022-08-05T06:13:25.188Z,66.8
2022-08-05T06:18:57.044Z,110.4
2022-08-05T06:24:28.717Z,101.7
2022-08-05T06:30:21.316Z,143.8
2022-08-05T06:36:13.110Z,170.9
2022-08-05T06:41:43.928Z,172.3
2022-08-05T06:48:12.035Z,129
2022-08-05T06:54:29.199Z,127.5
2022-08-05T06:59:58.625Z,134.6
2022-08-05T07:05:41.546Z,135.9
2022-08-05T07:11:16.202Z,141
2022-08-05T07:18:11.610Z,153
2022-08-05T07:23:52.496Z,207.2
2022-08-05T07:29:15.531Z,146.1
2022-08-05T07:34:42.822Z,103.7
2022-08-05T07:45:11.068Z,196.2
2022-08-05T07:50:36.695Z,212
2022-08-05T07:57:59.060Z,115.7
2022-08-05T08:03:45.295Z,170.8
2022-08-05T08:09:15.980Z,255.3
2022-08-05T08:15:03.615Z,147.2
2022-08-05T08:21:15.896Z,188.5
2022-08-05T08:26:41.666Z,249.6
2022-08-05T08:32:04.557Z,184.5
2022-08-05T08:37:37.184Z,173.4
2022-08-05T08:45:30.657Z,250.2
2022-08-05T08:52:13.530Z,400.2
2022-08-05T08:57:58.825Z,226
2022-08-05T09:03:21.739Z,336.7
2022-08-05T09:08:44.763Z,354.7
2022-08-05T09:15:11.648Z,437.9
2022-08-05T09:20:39.578Z,465.2
2022-08-05T09:26:09.462Z,765.2
2022-08-05T09:32:47.222Z,879.7
2022-08-05T09:38:29.559Z,617.5
2022-08-05T09:43:57.535Z,942.3
2022-08-05T09:49:20.589Z,1188.5
2022-08-05T09:54:47.050Z,1065.8
2022-08-05T10:00:11.064Z,1161.8
2022-08-05T10:05:33.986Z,1453
2022-08-05T10:10:57.338Z,1384
2022-08-05T10:16:20.087Z,1398.3
2022-08-05T10:27:09.320Z,1503.1
2022-08-05T10:33:03.743Z,2300.8
2022-08-05T10:38:33.526Z,3834.7
2022-08-05T10:43:59.630Z,2389.6
2022-08-05T10:55:01.172Z,1577.9
2022-08-05T11:00:23.738Z,5176
2022-08-05T11:05:49.806Z,5592.6
2022-08-05T11:11:17.175Z,1650.1
2022-08-05T11:22:17.891Z,4197.7
2022-08-05T11:28:05.096Z,2784.2
2022-08-05T11:33:48.362Z,3876.9
2022-08-05T11:39:14.159Z,4245.4
2022-08-05T11:49:51.282Z,1304.8
2022-08-05T11:55:14.944Z,3107.2
2022-08-05T12:00:44.278Z,1995.7
2022-08-05T12:06:10.943Z,4519.8
2022-08-05T12:11:41.896Z,4340.6
2022-08-05T12:18:12.458Z,4629.3
2022-08-05T12:23:43.630Z,4436.7
2022-08-05T12:29:23.357Z,2994
2022-08-05T12:34:49.936Z,1808.2
2022-08-05T12:40:32.575Z,4676.3
2022-08-05T12:45:56.189Z,3072.7
2022-08-05T12:59:03.211Z,4704.6
2022-08-05T13:04:25.907Z,1415.8
2022-08-05T13:09:57.091Z,2992.1
2022-08-05T13:15:50.431Z,1288.4
2022-08-05T13:21:13.841Z,715.2
2022-08-05T13:32:37.647Z,261.3
2022-08-05T13:38:06.178Z,148.7
2022-08-05T13:43:55.533Z,245.2
2022-08-05T13:49:18.130Z,286.3
2022-08-05T13:54:53.777Z,428.3
2022-08-05T14:00:17.698Z,989.6
2022-08-05T14:06:27.186Z,1458.7
2022-08-05T14:12:39.831Z,1385.3
2022-08-05T14:18:24.238Z,1679.2
2022-08-05T14:23:47.201Z,1565.2
2022-08-05T14:29:26.289Z,3531.2
2022-08-05T14:34:51.827Z,1434.1
2022-08-05T14:40:17.377Z,3949.4
2022-08-05T14:51:09.827Z,1114.2
2022-08-05T14:56:46.691Z,946.6
2022-08-05T15:02:27.001Z,1770.9
2022-08-05T15:08:58.860Z,1383
2022-08-05T15:14:50.638Z,1034.9
2022-08-05T15:20:25.061Z,1169.5
2022-08-05T15:31:35.369Z,820.9
2022-08-05T15:37:20.704Z,749.6
2022-08-05T15:43:47.894Z,583.2
2022-08-05T15:49:42.069Z,615.5
2022-08-05T15:55:19.151Z,623.7
2022-08-05T16:01:17.516Z,857.1
2022-08-05T16:06:40.822Z,678.4
2022-08-05T16:12:03.017Z,448.2
2022-08-05T16:17:35.029Z,488.3
2022-08-05T16:22:57.762Z,681.5
2022-08-05T16:28:27.886Z,618.4
2022-08-05T16:33:50.354Z,610.7
2022-08-05T16:39:13.446Z,663.8
2022-08-05T16:55:47.742Z,623.5
2022-08-05T17:01:11.281Z,547.3
2022-08-05T17:06:53.213Z,500.6
2022-08-05T17:12:52.256Z,399.2
2022-08-05T17:18:16.189Z,361.9
2022-08-05T17:24:57.399Z,434.7
2022-08-05T17:30:29.271Z,344.6
2022-08-05T17:36:40.170Z,294
2022-08-05T17:42:32.201Z,190.7
2022-08-05T17:53:10.535Z,247
2022-08-05T17:58:33.192Z,243.8
2022-08-05T18:04:11.867Z,243.3
2022-08-05T18:10:10.738Z,200.5
2022-08-05T18:15:38.556Z,188.2
2022-08-05T18:21:01.882Z,136.2
2022-08-05T18:26:33.185Z,133.1
2022-08-05T18:31:55.929Z,117.5
2022-08-05T18:37:48.460Z,105.2
2022-08-05T18:48:53.887Z,77.6
2022-08-05T18:55:11.362Z,66.6
2022-08-05T19:00:35.048Z,46.6
2022-08-05T19:06:44.756Z,36.8
2022-08-05T19:12:11.482Z,31.1
2022-08-05T19:18:22.473Z,24
2022-08-05T19:24:13.348Z,12
2022-08-05T19:29:38.959Z,4
2022-08-05T19:35:07.269Z,0
2022-08-05T19:40:40.153Z,0
2022-08-05T19:46:30.932Z,0
2022-08-05T19:52:41.377Z,0
2022-08-05T19:58:30.377Z,0
2022-08-05T20:09:56.848Z,0
2022-08-05T20:15:58.026Z,0
2022-08-05T20:21:22.515Z,0
2022-08-05T20:26:45.629Z,0
2022-08-05T20:32:12.893Z,0
2022-08-05T20:38:08.772Z,0
2022-08-05T20:44:29.287Z,0
2022-08-05T20:50:07.981Z,0
2022-08-05T20:56:09.766Z,0
2022-08-05T21:01:47.038Z,0
2022-08-05T21:07:12.609Z,0
2022-08-05T21:18:00.672Z,0
2022-08-05T21:30:01.725Z,0
2022-08-05T21:35:59.277Z,0
2022-08-05T21:41:22.428Z,0
2022-08-05T21:46:48.831Z,0
2022-08-05T21:52:32.139Z,0
2022-08-05T21:57:58.269Z,0
2022-08-05T22:09:45.711Z,0
2022-08-05T22:15:16.781Z,0
2022-08-05T22:21:26.584Z,0
2022-08-05T22:27:10.895Z,0
2022-08-05T22:32:41.594Z,0
2022-08-05T22:38:08.220Z,0
2022-08-05T22:43:38.415Z,0
2022-08-05T22:49:06.350Z,0
2022-08-05T22:54:29.051Z,0
2022-08-05T22:59:54.695Z,0
2022-08-05T23:05:23.994Z,0
2022-08-05T23:10:56.217Z,0
2022-08-05T23:16:34.806Z,0
2022-08-05T23:27:24.318Z,0
2022-08-05T23:33:00.587Z,0
2022-08-05T23:38:24.783Z,0
2022-08-05T23:44:09.108Z,0
2022-08-05T23:49:38.026Z,0
2022-08-05T23:55:05.363Z,0
